createdAt,value
2022-12-20T00:01:44.090Z,99879.81
2022-12-20T00:03:48.971Z,99881.13
2022-12-20T00:05:51.706Z,99880.28
2022-12-20T00:07:54.317Z,99883.09
2022-12-20T00:09:57.002Z,99882.94
2022-12-20T00:11:59.682Z,99861.41
2022-12-20T00:14:02.289Z,99877.13
2022-12-20T00:16:18.485Z,99870.81
2022-12-20T00:18:21.096Z,99881.75
2022-12-20T00:20:23.977Z,99882.41
2022-12-20T00:22:26.617Z,99885.06
2022-12-20T00:24:30.675Z,99872.84
2022-12-20T00:26:34.939Z,99877.59
2022-12-20T00:28:38.596Z,99882.06
2022-12-20T00:30:41.122Z,99876.09
2022-12-20T00:32:44.995Z,99868.84
2022-12-20T00:34:47.646Z,99874.94
2022-12-20T00:36:50.348Z,99871.50
2022-12-20T00:38:54.873Z,99865.38
2022-12-20T00:41:13.268Z,99875.09
2022-12-20T00:43:15.877Z,99876.41
2022-12-20T00:45:18.474Z,99860.88
2022-12-20T00:47:21.152Z,99866.69
2022-12-20T00:49:23.771Z,99863.50
2022-12-20T00:51:30.333Z,99862.34
2022-12-20T00:53:33.932Z,99867.50
2022-12-20T00:55:42.646Z,99872.44
2022-12-20T00:57:45.229Z,99868.59
2022-12-20T00:59:48.022Z,99867.09
2022-12-20T01:01:50.752Z,99850.13
2022-12-20T01:03:53.963Z,99857.56
2022-12-20T01:05:59.579Z,99858.53
2022-12-20T01:08:02.316Z,99851.16
2022-12-20T01:10:05.277Z,99838.09
2022-12-20T01:12:08.360Z,99841.53
2022-12-20T01:14:14.145Z,99845.53
2022-12-20T01:16:20.398Z,99848.03
2022-12-20T01:18:23.333Z,99861.38
2022-12-20T01:20:25.897Z,99868.31
2022-12-20T01:22:28.640Z,99878.06
2022-12-20T01:24:31.349Z,99875.28
2022-12-20T01:26:33.988Z,99884.81
2022-12-20T01:28:39.147Z,99895.75
2022-12-20T01:30:41.746Z,99890.91
2022-12-20T01:32:44.812Z,99893.56
2022-12-20T01:34:47.451Z,99885.28
2022-12-20T01:36:50.217Z,99884.59
2022-12-20T01:39:08.286Z,99897.97
2022-12-20T01:41:16.912Z,99893.81
2022-12-20T01:43:20.960Z,99903.41
2022-12-20T01:45:28.556Z,99894.50
2022-12-20T01:47:34.947Z,99890.81
2022-12-20T01:49:48.332Z,99896.06
2022-12-20T01:51:59.010Z,99893.59
2022-12-20T01:54:14.644Z,99898.38
2022-12-20T01:56:17.547Z,99880.34
2022-12-20T01:58:21.509Z,99882.00
2022-12-20T02:00:24.744Z,99882.19
2022-12-20T02:02:28.144Z,99886.78
2022-12-20T02:04:31.260Z,99881.50
2022-12-20T02:06:33.921Z,99878.69
2022-12-20T02:08:36.573Z,99894.25
2022-12-20T02:10:47.935Z,99883.69
2022-12-20T02:12:56.662Z,99879.69
2022-12-20T02:15:49.694Z,99882.63
2022-12-20T02:18:10.453Z,99873.03
2022-12-20T02:20:31.037Z,99871.91
2022-12-20T02:23:00.104Z,99873.41
2022-12-20T02:25:33.963Z,99866.94
2022-12-20T02:27:54.966Z,99872.91
2022-12-20T02:30:14.401Z,99875.69
2022-12-20T02:32:24.915Z,99872.91
2022-12-20T02:34:30.195Z,99866.56
2022-12-20T02:36:32.889Z,99876.50
2022-12-20T02:38:38.387Z,99879.47
2022-12-20T02:40:44.054Z,99886.41
2022-12-20T02:42:47.493Z,99877.66
2022-12-20T02:45:16.528Z,99881.13
2022-12-20T02:47:24.783Z,99874.19
2022-12-20T02:49:32.141Z,99870.41
2022-12-20T02:51:35.227Z,99872.59
2022-12-20T02:53:38.901Z,99869.25
2022-12-20T02:55:55.104Z,99872.91
2022-12-20T02:58:06.508Z,99875.41
2022-12-20T03:00:13.805Z,99867.00
2022-12-20T03:02:17.186Z,99868.66
2022-12-20T03:04:24.584Z,99873.31
2022-12-20T03:06:27.812Z,99855.34
2022-12-20T03:08:31.123Z,99859.66
2022-12-20T03:10:33.677Z,99861.22
2022-12-20T03:12:36.383Z,99864.66
2022-12-20T03:14:40.070Z,99861.06
2022-12-20T03:16:42.745Z,99862.38
2022-12-20T03:18:46.361Z,99871.63
2022-12-20T03:20:48.981Z,99857.06
2022-12-20T03:22:51.679Z,99863.97
2022-12-20T03:24:54.332Z,99869.91
2022-12-20T03:26:56.995Z,99870.41
2022-12-20T03:28:59.631Z,99871.63
2022-12-20T03:31:02.344Z,99874.25
2022-12-20T03:33:05.035Z,99867.97
2022-12-20T03:35:08.096Z,99868.78
2022-12-20T03:37:10.818Z,99868.78
2022-12-20T03:39:13.442Z,99857.09
2022-12-20T03:41:26.806Z,99830.22
2022-12-20T03:43:29.395Z,99862.56
2022-12-20T03:45:31.995Z,99868.66
2022-12-20T03:47:34.729Z,99868.34
2022-12-20T03:49:37.388Z,99853.13
2022-12-20T03:51:39.994Z,99862.84
2022-12-20T03:53:42.977Z,99848.13
2022-12-20T03:55:47.603Z,99843.38
2022-12-20T03:57:50.235Z,99851.16
2022-12-20T03:59:54.416Z,99851.97
2022-12-20T04:01:57.187Z,99843.88
2022-12-20T04:04:00.043Z,99851.97
2022-12-20T04:06:02.796Z,99847.00
2022-12-20T04:08:05.610Z,99844.31
2022-12-20T04:10:08.819Z,99853.06
2022-12-20T04:12:11.632Z,99840.09
2022-12-20T04:14:14.332Z,99849.44
2022-12-20T04:16:22.217Z,99849.00
2022-12-20T04:18:24.864Z,99841.22
2022-12-20T04:20:27.499Z,99843.72
2022-12-20T04:22:30.110Z,99841.72
2022-12-20T04:24:32.827Z,99848.47
2022-12-20T04:26:35.562Z,99863.25
2022-12-20T04:28:38.208Z,99846.06
2022-12-20T04:30:40.832Z,99844.72
2022-12-20T04:32:43.619Z,99848.69
2022-12-20T04:34:46.196Z,99853.47
2022-12-20T04:36:49.268Z,99846.53
2022-12-20T04:38:52.304Z,99851.44
2022-12-20T04:40:56.110Z,99843.03
2022-12-20T04:42:58.820Z,99849.25
2022-12-20T04:45:01.577Z,99836.03
2022-12-20T04:47:06.666Z,99849.66
2022-12-20T04:49:09.243Z,99848.63
2022-12-20T04:51:11.987Z,99845.00
2022-12-20T04:53:33.726Z,99863.91
2022-12-20T04:55:40.567Z,99853.47
2022-12-20T04:57:43.069Z,99857.94
2022-12-20T04:59:45.735Z,99862.38
2022-12-20T05:01:48.403Z,99855.06
2022-12-20T05:03:51.572Z,99870.22
2022-12-20T05:05:54.609Z,99878.25
2022-12-20T05:07:57.230Z,99864.56
2022-12-20T05:10:00.084Z,99869.00
2022-12-20T05:12:05.045Z,99864.31
2022-12-20T05:14:08.941Z,99867.97
2022-12-20T05:16:12.121Z,99870.03
2022-12-20T05:18:14.727Z,99881.88
2022-12-20T05:20:17.432Z,99884.88
2022-12-20T05:22:38.694Z,99878.59
2022-12-20T05:25:02.508Z,99879.59
2022-12-20T05:27:06.178Z,99880.81
2022-12-20T05:29:08.904Z,99879.09
2022-12-20T05:31:11.637Z,99888.81
2022-12-20T05:33:14.325Z,99885.72
2022-12-20T05:35:17.305Z,99893.03
2022-12-20T05:37:20.109Z,99873.88
2022-12-20T05:39:22.671Z,99885.66
2022-12-20T05:41:25.496Z,99884.66
2022-12-20T05:43:28.171Z,99886.03
2022-12-20T05:45:30.811Z,99888.53
2022-12-20T05:47:34.127Z,99886.41
2022-12-20T05:49:36.776Z,99892.38
2022-12-20T05:51:39.423Z,99879.50
2022-12-20T05:53:42.072Z,99882.41
2022-12-20T05:55:52.822Z,99888.78
2022-12-20T05:57:55.410Z,99872.63
2022-12-20T05:59:58.006Z,99880.75
2022-12-20T06:02:01.142Z,99878.03
2022-12-20T06:04:04.333Z,99884.56
2022-12-20T06:06:14.089Z,99879.50
2022-12-20T06:08:17.456Z,99882.34
2022-12-20T06:10:20.037Z,99886.19
2022-12-20T06:12:23.378Z,99878.44
2022-12-20T06:14:26.043Z,99878.28
2022-12-20T06:16:28.792Z,99866.38
2022-12-20T06:18:31.543Z,99877.97
2022-12-20T06:20:37.378Z,99864.63
2022-12-20T06:22:40.682Z,99879.56
2022-12-20T06:24:48.182Z,99867.88
2022-12-20T06:26:54.524Z,99880.81
2022-12-20T06:29:02.240Z,99875.88
2022-12-20T06:31:04.998Z,99878.41
2022-12-20T06:33:07.952Z,99878.63
2022-12-20T06:35:10.995Z,99869.41
2022-12-20T06:37:13.852Z,99867.63
2022-12-20T06:39:16.531Z,99864.00
2022-12-20T06:41:19.821Z,99873.25
2022-12-20T06:43:22.624Z,99872.44
2022-12-20T06:45:25.357Z,99871.97
2022-12-20T06:47:28.241Z,99862.03
2022-12-20T06:49:31.070Z,99871.44
2022-12-20T06:51:33.953Z,99869.47
2022-12-20T06:53:36.598Z,99874.13
2022-12-20T06:55:40.157Z,99861.91
2022-12-20T06:57:43.227Z,99852.94
2022-12-20T06:59:45.981Z,99855.25
2022-12-20T07:01:48.711Z,99851.91
2022-12-20T07:03:51.440Z,99848.94
2022-12-20T07:05:54.816Z,99840.53
2022-12-20T07:07:57.519Z,99838.22
2022-12-20T07:10:00.142Z,99831.78
2022-12-20T07:12:02.902Z,99826.19
2022-12-20T07:14:05.604Z,99824.03
2022-12-20T07:16:08.498Z,99836.97
2022-12-20T07:18:11.664Z,99839.59
2022-12-20T07:20:15.129Z,99839.28
2022-12-20T07:22:18.012Z,99839.31
2022-12-20T07:24:20.993Z,99831.84
2022-12-20T07:26:23.650Z,99847.56
2022-12-20T07:28:27.525Z,99836.66
2022-12-20T07:30:31.488Z,99839.66
2022-12-20T07:32:35.210Z,99837.00
2022-12-20T07:34:38.318Z,99835.16
2022-12-20T07:36:41.171Z,99848.25
2022-12-20T07:38:43.915Z,99859.19
2022-12-20T07:40:46.571Z,99847.13
2022-12-20T07:42:49.276Z,99837.69
2022-12-20T07:44:51.953Z,99837.38
2022-12-20T07:46:54.577Z,99847.50
2022-12-20T07:48:59.257Z,99838.72
2022-12-20T07:51:06.455Z,99846.81
2022-12-20T07:53:09.829Z,99838.03
2022-12-20T07:55:13.709Z,99826.78
2022-12-20T07:57:22.738Z,99837.53
2022-12-20T07:59:32.164Z,99832.06
2022-12-20T08:01:35.622Z,99830.06
2022-12-20T08:04:02.945Z,99827.56
2022-12-20T08:06:07.733Z,99820.91
2022-12-20T08:08:10.619Z,99825.84
2022-12-20T08:10:16.616Z,99813.06
2022-12-20T08:12:20.492Z,99811.25
2022-12-20T08:14:23.145Z,99813.72
2022-12-20T08:16:26.573Z,99823.47
2022-12-20T08:18:29.215Z,99819.31
2022-12-20T08:20:32.928Z,99825.44
2022-12-20T08:22:35.882Z,99825.59
2022-12-20T08:24:38.630Z,99818.28
2022-12-20T08:26:42.363Z,99818.09
2022-12-20T08:28:45.042Z,99820.69
2022-12-20T08:30:47.832Z,99825.47
2022-12-20T08:32:50.504Z,99823.47
2022-12-20T08:34:53.861Z,99814.34
2022-12-20T08:36:56.448Z,99807.19
2022-12-20T08:38:58.986Z,99809.03
2022-12-20T08:41:09.036Z,99803.72
2022-12-20T08:43:11.696Z,99802.91
2022-12-20T08:45:14.455Z,99802.25
2022-12-20T08:47:17.039Z,99796.63
2022-12-20T08:49:19.871Z,99784.94
2022-12-20T08:51:22.666Z,99792.16
2022-12-20T08:53:25.543Z,99791.09
2022-12-20T08:55:29.579Z,99786.91
2022-12-20T08:57:32.765Z,99780.44
2022-12-20T08:59:35.361Z,99763.59
2022-12-20T09:01:38.066Z,99780.94
2022-12-20T09:03:41.539Z,99777.94
2022-12-20T09:05:46.408Z,99776.94
2022-12-20T09:07:49.188Z,99762.00
2022-12-20T09:09:51.809Z,99763.59
2022-12-20T09:11:54.491Z,99766.78
2022-12-20T09:13:59.231Z,99763.28
2022-12-20T09:16:04.797Z,99754.97
2022-12-20T09:18:07.422Z,99756.53
2022-12-20T09:20:10.259Z,99751.59
2022-12-20T09:22:12.960Z,99745.53
2022-12-20T09:24:15.592Z,99756.34
2022-12-20T09:26:19.746Z,99757.44
2022-12-20T09:28:22.981Z,99749.94
2022-12-20T09:30:25.699Z,99753.25
2022-12-20T09:32:28.360Z,99755.91
2022-12-20T09:34:31.114Z,99749.31
2022-12-20T09:36:34.027Z,99741.16
2022-12-20T09:38:36.979Z,99747.28
2022-12-20T09:40:45.737Z,99726.56
2022-12-20T09:42:50.184Z,99728.13
2022-12-20T09:44:53.935Z,99714.84
2022-12-20T09:47:08.245Z,99732.72
2022-12-20T09:49:17.470Z,99730.50
2022-12-20T09:51:20.023Z,99726.41
2022-12-20T09:53:54.444Z,99719.34
2022-12-20T09:56:03.846Z,99723.47
2022-12-20T09:58:25.481Z,99717.34
2022-12-20T10:00:28.736Z,99715.50
2022-12-20T10:04:55.789Z,99710.00
2022-12-20T10:07:22.771Z,99712.03
2022-12-20T10:09:43.444Z,99709.25
2022-12-20T10:11:52.755Z,99713.84
2022-12-20T10:14:13.072Z,99708.25
2022-12-20T10:16:39.540Z,99703.13
2022-12-20T10:19:28.313Z,99702.72
2022-12-20T10:21:44.654Z,99707.31
2022-12-20T10:24:01.712Z,99694.13
2022-12-20T10:26:10.950Z,99695.50
2022-12-20T10:28:16.492Z,99698.41
2022-12-20T10:30:22.161Z,99678.34
2022-12-20T10:32:24.876Z,99687.84
2022-12-20T10:34:33.336Z,99683.81
2022-12-20T10:36:39.247Z,99685.44
2022-12-20T10:38:47.344Z,99675.56
2022-12-20T10:41:21.305Z,99680.34
2022-12-20T10:43:21.991Z,99682.22
2022-12-20T10:45:24.528Z,99677.94
2022-12-20T10:47:34.749Z,99682.63
2022-12-20T10:49:41.290Z,99679.78
2022-12-20T10:51:53.058Z,99682.22
2022-12-20T10:54:02.840Z,99675.34
2022-12-20T10:56:27.579Z,99671.25
2022-12-20T10:58:35.805Z,99673.69
2022-12-20T11:00:38.804Z,99664.81
2022-12-20T11:02:43.004Z,99678.19
2022-12-20T11:05:20.496Z,99676.16
2022-12-20T11:07:27.175Z,99676.59
2022-12-20T11:09:36.119Z,99667.25
2022-12-20T11:11:38.853Z,99661.91
2022-12-20T11:13:41.828Z,99667.88
2022-12-20T11:15:50.233Z,99658.88
2022-12-20T11:18:00.109Z,99660.72
2022-12-20T11:20:44.064Z,99672.47
2022-12-20T11:23:01.845Z,99669.22
2022-12-20T11:25:04.322Z,99659.81
2022-12-20T11:27:43.691Z,99658.44
2022-12-20T11:30:16.287Z,99667.06
2022-12-20T11:32:53.854Z,99651.03
2022-12-20T11:35:19.336Z,99667.47
2022-12-20T11:37:24.782Z,99662.69
2022-12-20T11:39:46.693Z,99656.50
2022-12-20T11:42:29.727Z,99664.66
2022-12-20T11:44:53.934Z,99669.09
2022-12-20T11:47:06.715Z,99675.91
2022-12-20T11:49:33.624Z,99666.53
2022-12-20T11:51:53.499Z,99660.63
2022-12-20T11:54:17.057Z,99659.00
2022-12-20T11:56:29.370Z,99661.50
2022-12-20T11:58:47.455Z,99661.28
2022-12-20T12:01:13.133Z,99661.53
2022-12-20T12:03:29.188Z,99659.34
2022-12-20T12:05:41.937Z,99652.72
2022-12-20T12:07:49.570Z,99643.19
2022-12-20T12:10:25.898Z,99638.75
2022-12-20T12:12:45.564Z,99635.13
2022-12-20T12:15:00.530Z,99634.56
2022-12-20T12:17:21.935Z,99637.28
2022-12-20T12:19:28.474Z,99635.50
2022-12-20T12:21:45.981Z,99632.03
2022-12-20T12:23:55.823Z,99633.13
2022-12-20T12:26:08.076Z,99630.72
2022-12-20T12:28:14.550Z,99629.31
2022-12-20T12:30:18.001Z,99630.56
2022-12-20T12:32:27.297Z,99631.81
2022-12-20T12:34:45.620Z,99631.44
2022-12-20T12:36:48.497Z,99607.72
2022-12-20T12:39:21.745Z,99616.75
2022-12-20T12:41:49.279Z,99616.78
2022-12-20T12:44:00.170Z,99618.19
2022-12-20T12:46:14.196Z,99623.56
2022-12-20T12:48:26.929Z,99622.94
2022-12-20T12:50:34.031Z,99621.91
2022-12-20T12:52:49.693Z,99619.25
2022-12-20T12:54:52.394Z,99619.69
2022-12-20T12:57:21.241Z,99614.59
2022-12-20T12:59:24.442Z,99633.69
2022-12-20T13:01:54.101Z,99616.50
2022-12-20T13:03:56.967Z,99617.34
2022-12-20T13:06:22.357Z,99623.72
2022-12-20T13:08:49.330Z,99611.00
2022-12-20T13:10:51.859Z,99614.13
2022-12-20T13:13:00.018Z,99613.53
2022-12-20T13:15:22.221Z,99601.81
2022-12-20T13:17:45.053Z,99610.44
2022-12-20T13:19:55.820Z,99607.19
2022-12-20T13:22:16.986Z,99598.97
2022-12-20T13:24:42.698Z,99604.56
2022-12-20T13:26:55.861Z,99608.84
2022-12-20T13:29:24.803Z,99620.78
2022-12-20T13:31:27.423Z,99603.53
2022-12-20T13:34:25.504Z,99614.03
2022-12-20T13:36:36.320Z,99619.13
2022-12-20T13:38:59.882Z,99608.09
2022-12-20T13:41:10.807Z,99615.06
2022-12-20T13:43:22.301Z,99607.69
2022-12-20T13:45:26.508Z,99604.78
2022-12-20T13:47:34.891Z,99617.53
2022-12-20T13:49:43.375Z,99619.00
2022-12-20T13:51:46.070Z,99613.25
2022-12-20T13:53:57.131Z,99609.16
2022-12-20T13:56:19.604Z,99603.59
2022-12-20T13:58:36.898Z,99606.06
2022-12-20T14:00:39.970Z,99606.50
2022-12-20T14:02:44.255Z,99605.03
2022-12-20T14:04:56.281Z,99601.16
2022-12-20T14:07:01.934Z,99601.16
2022-12-20T14:09:05.932Z,99603.22
2022-12-20T14:11:11.342Z,99592.97
2022-12-20T14:13:21.371Z,99601.38
2022-12-20T14:15:27.579Z,99593.97
2022-12-20T14:17:32.650Z,99597.28
2022-12-20T14:19:35.263Z,99590.50
2022-12-20T14:21:42.663Z,99586.81
2022-12-20T14:23:50.533Z,99591.16
2022-12-20T14:25:57.336Z,99584.75
2022-12-20T14:28:00.571Z,99584.75
2022-12-20T14:30:05.002Z,99580.84
2022-12-20T14:32:18.781Z,99583.13
2022-12-20T14:34:36.727Z,99587.44
2022-12-20T14:36:46.666Z,99577.38
2022-12-20T14:38:51.708Z,99573.25
2022-12-20T14:40:56.077Z,99577.38
2022-12-20T14:42:58.934Z,99567.91
2022-12-20T14:45:20.079Z,99578.41
2022-12-20T14:47:27.837Z,99575.91
2022-12-20T14:49:36.806Z,99568.34
2022-12-20T14:51:47.018Z,99571.63
2022-12-20T14:53:56.062Z,99567.53
2022-12-20T14:55:58.889Z,99576.75
2022-12-20T14:58:06.074Z,99566.47
2022-12-20T15:00:27.783Z,99570.16
2022-12-20T15:02:59.473Z,99568.72
2022-12-20T15:05:28.022Z,99555.78
2022-12-20T15:07:32.342Z,99561.75
2022-12-20T15:09:34.917Z,99566.88
2022-12-20T15:11:38.589Z,99557.66
2022-12-20T15:13:56.957Z,99557.22
2022-12-20T15:16:27.395Z,99559.28
2022-12-20T15:18:30.600Z,99554.75
2022-12-20T15:20:33.248Z,99555.34
2022-12-20T15:22:35.813Z,99550.63
2022-12-20T15:24:38.449Z,99543.81
2022-12-20T15:26:41.796Z,99549.56
2022-12-20T15:28:44.822Z,99550.38
2022-12-20T15:30:48.771Z,99553.25
2022-12-20T15:32:55.606Z,99531.06
2022-12-20T15:34:58.892Z,99552.00
2022-12-20T15:37:02.735Z,99552.84
2022-12-20T15:39:13.535Z,99549.31
2022-12-20T15:41:37.068Z,99555.28
2022-12-20T15:43:39.753Z,99543.56
2022-12-20T15:45:46.882Z,99545.63
2022-12-20T15:47:49.492Z,99549.28
2022-12-20T15:49:52.309Z,99546.63
2022-12-20T15:51:55.803Z,99535.09
2022-12-20T15:54:00.368Z,99547.84
2022-12-20T15:56:03.433Z,99544.75
2022-12-20T15:58:06.057Z,99544.94
2022-12-20T16:00:10.434Z,99541.03
2022-12-20T16:02:28.103Z,99533.59
2022-12-20T16:04:32.706Z,99536.09
2022-12-20T16:06:35.547Z,99533.81
2022-12-20T16:08:39.253Z,99533.38
2022-12-20T16:10:43.074Z,99526.38
2022-12-20T16:12:45.927Z,99526.16
2022-12-20T16:14:48.525Z,99532.50
2022-12-20T16:17:01.139Z,99531.06
2022-12-20T16:19:04.199Z,99522.03
2022-12-20T16:21:24.878Z,99527.94
2022-12-20T16:23:27.552Z,99520.78
2022-12-20T16:25:33.302Z,99535.41
2022-12-20T16:27:35.975Z,99525.34
2022-12-20T16:29:38.581Z,99517.72
2022-12-20T16:31:43.641Z,99517.72
2022-12-20T16:33:46.316Z,99518.56
2022-12-20T16:35:48.979Z,99513.63
2022-12-20T16:37:51.609Z,99520.81
2022-12-20T16:39:54.216Z,99512.59
2022-12-20T16:41:56.947Z,99511.97
2022-12-20T16:44:01.643Z,99502.88
2022-12-20T16:46:04.492Z,99507.59
2022-12-20T16:48:08.244Z,99508.22
2022-12-20T16:50:12.515Z,99508.81
2022-12-20T16:52:18.888Z,99513.34
2022-12-20T16:54:23.286Z,99497.88
2022-12-20T16:56:27.071Z,99509.84
2022-12-20T16:59:00.135Z,99498.13
2022-12-20T17:00:53.638Z,99501.00
2022-12-20T17:02:57.179Z,99503.69
2022-12-20T17:05:00.889Z,99502.25
2022-12-20T17:07:03.936Z,99506.56
2022-12-20T17:11:32.177Z,99500.22
2022-12-20T17:13:34.783Z,99497.75
2022-12-20T17:15:39.182Z,99499.06
2022-12-20T17:17:41.779Z,99491.59
2022-12-20T17:19:44.401Z,99492.44
2022-12-20T17:24:20.947Z,99495.16
2022-12-20T17:26:29.199Z,99497.81
2022-12-20T17:28:32.024Z,99492.88
2022-12-20T17:30:34.597Z,99493.13
2022-12-20T17:32:37.417Z,99499.88
2022-12-20T17:34:39.932Z,99501.50
2022-12-20T17:36:42.560Z,99498.84
2022-12-20T17:38:45.368Z,99503.00
2022-12-20T17:40:47.956Z,99511.66
2022-12-20T17:42:50.734Z,99505.25
2022-12-20T17:44:53.278Z,99520.88
2022-12-20T17:46:57.191Z,99509.16
2022-12-20T17:48:59.816Z,99506.69
2022-12-20T17:51:03.064Z,99512.44
2022-12-20T17:53:05.634Z,99514.88
2022-12-20T17:55:15.866Z,99516.78
2022-12-20T17:57:18.487Z,99520.50
2022-12-20T17:59:22.516Z,99508.75
2022-12-20T18:01:27.550Z,99507.72
2022-12-20T18:04:02.203Z,99514.28
2022-12-20T18:05:52.850Z,99512.22
2022-12-20T18:07:56.408Z,99505.63
2022-12-20T18:09:59.379Z,99506.22
2022-12-20T18:12:01.940Z,99501.91
2022-12-20T18:14:04.730Z,99498.78
2022-12-20T18:16:08.087Z,99499.56
2022-12-20T18:18:10.645Z,99499.75
2022-12-20T18:20:13.674Z,99502.78
2022-12-20T18:22:16.236Z,99506.75
2022-12-20T18:24:20.134Z,99504.47
2022-12-20T18:26:31.885Z,99498.47
2022-12-20T18:28:36.957Z,99497.22
2022-12-20T18:30:39.577Z,99502.16
2022-12-20T18:32:42.342Z,99501.09
2022-12-20T18:34:45.084Z,99499.69
2022-12-20T18:36:47.771Z,99489.41
2022-12-20T18:38:51.810Z,99492.69
2022-12-20T18:40:54.494Z,99493.38
2022-12-20T18:43:01.069Z,99492.59
2022-12-20T18:45:09.808Z,99494.06
2022-12-20T18:47:12.457Z,99493.66
2022-12-20T18:49:15.099Z,99495.72
2022-12-20T18:51:20.629Z,99503.16
2022-12-20T18:53:23.223Z,99503.56
2022-12-20T18:55:25.874Z,99495.53
2022-12-20T18:57:28.507Z,99500.06
2022-12-20T18:59:31.147Z,99497.81
2022-12-20T19:01:35.199Z,99486.88
2022-12-20T19:03:37.941Z,99493.25
2022-12-20T19:05:41.113Z,99494.91
2022-12-20T19:07:43.761Z,99481.94
2022-12-20T19:09:46.327Z,99489.31
2022-12-20T19:11:54.594Z,99497.50
2022-12-20T19:13:59.445Z,99491.53
2022-12-20T19:16:07.995Z,99494.03
2022-12-20T19:18:10.845Z,99491.09
2022-12-20T19:20:13.596Z,99491.09
2022-12-20T19:22:16.157Z,99494.41
2022-12-20T19:24:18.770Z,99493.38
2022-12-20T19:26:23.562Z,99497.66
2022-12-20T19:28:26.144Z,99490.91
2022-12-20T19:30:30.234Z,99496.06
2022-12-20T19:32:33.093Z,99494.53
2022-12-20T19:34:35.685Z,99493.06
2022-12-20T19:36:40.930Z,99493.88
2022-12-20T19:38:47.693Z,99487.28
2022-12-20T19:40:54.100Z,99489.75
2022-12-20T19:42:56.702Z,99494.91
2022-12-20T19:44:59.403Z,99489.13
2022-12-20T19:47:05.437Z,99484.16
2022-12-20T19:49:08.407Z,99483.56
2022-12-20T19:51:12.833Z,99489.13
2022-12-20T19:53:15.546Z,99486.88
2022-12-20T19:55:18.190Z,99482.53
2022-12-20T19:57:20.760Z,99487.69
2022-12-20T19:59:23.536Z,99480.28
2022-12-20T20:01:27.915Z,99492.59
2022-12-20T20:03:31.116Z,99478.81
2022-12-20T20:05:35.171Z,99491.94
2022-12-20T20:07:37.730Z,99482.91
2022-12-20T20:09:40.274Z,99488.25
2022-12-20T20:11:43.143Z,99483.91
2022-12-20T20:13:46.049Z,99484.75
2022-12-20T20:15:53.068Z,99484.97
2022-12-20T20:17:55.863Z,99494.63
2022-12-20T20:19:58.381Z,99495.88
2022-12-20T20:22:00.922Z,99491.34
2022-12-20T20:24:04.213Z,99491.13
2022-12-20T20:26:13.856Z,99488.47
2022-12-20T20:28:16.581Z,99488.88
2022-12-20T20:30:19.299Z,99492.13
2022-12-20T20:32:21.991Z,99484.09
2022-12-20T20:34:24.630Z,99487.81
2022-12-20T20:36:28.345Z,99492.97
2022-12-20T20:38:33.436Z,99488.63
2022-12-20T20:40:36.192Z,99484.69
2022-12-20T20:42:39.131Z,99488.22
2022-12-20T20:44:41.695Z,99490.06
2022-12-20T20:46:44.557Z,99494.38
2022-12-20T20:48:47.459Z,99491.25
2022-12-20T20:50:50.044Z,99484.88
2022-12-20T20:52:52.655Z,99494.34
2022-12-20T20:54:55.393Z,99494.50
2022-12-20T20:56:57.943Z,99484.81
2022-12-20T20:59:05.816Z,99484.16
2022-12-20T21:01:11.444Z,99485.97
2022-12-20T21:03:14.380Z,99475.28
2022-12-20T21:07:42.747Z,99475.06
2022-12-20T21:09:45.544Z,99480.41
2022-12-20T21:11:48.317Z,99486.59
2022-12-20T21:13:51.281Z,99484.94
2022-12-20T21:15:54.275Z,99482.25
2022-12-20T21:17:56.953Z,99480.63
2022-12-20T21:19:59.697Z,99474.47
2022-12-20T21:22:02.541Z,99476.28
2022-12-20T21:24:05.334Z,99480.63
2022-12-20T21:26:08.027Z,99480.63
2022-12-20T21:28:13.989Z,99472.81
2022-12-20T21:30:20.326Z,99464.41
2022-12-20T21:32:23.056Z,99473.19
2022-12-20T21:34:25.720Z,99476.28
2022-12-20T21:36:28.407Z,99478.97
2022-12-20T21:38:31.431Z,99477.56
2022-12-20T21:40:34.034Z,99473.84
2022-12-20T21:42:36.857Z,99481.66
2022-12-20T21:44:39.497Z,99484.31
2022-12-20T21:46:42.230Z,99470.38
2022-12-20T21:49:03.767Z,99479.41
2022-12-20T21:51:27.135Z,99482.09
2022-12-20T21:53:31.085Z,99480.22
2022-12-20T21:55:33.718Z,99475.72
2022-12-20T21:57:36.341Z,99474.66
2022-12-20T21:59:38.863Z,99485.38
2022-12-20T22:01:41.788Z,99490.13
2022-12-20T22:03:44.870Z,99483.75
2022-12-20T22:05:48.789Z,99490.34
2022-12-20T22:07:51.341Z,99486.63
2022-12-20T22:09:53.894Z,99484.78
2022-12-20T22:11:56.716Z,99488.25
2022-12-20T22:13:59.583Z,99487.66
2022-12-20T22:16:19.940Z,99488.06
2022-12-20T22:18:24.206Z,99492.16
2022-12-20T22:20:26.778Z,99484.72
2022-12-20T22:22:29.386Z,99486.19
2022-12-20T22:24:32.037Z,99487.25
2022-12-20T22:26:36.050Z,99483.97
2022-12-20T22:28:40.230Z,99488.50
2022-12-20T22:30:43.322Z,99492.81
2022-12-20T22:32:45.985Z,99488.25
2022-12-20T22:34:48.955Z,99490.72
2022-12-20T22:36:51.598Z,99479.88
2022-12-20T22:38:55.958Z,99485.38
2022-12-20T22:41:22.499Z,99488.06
2022-12-20T22:43:26.193Z,99488.66
2022-12-20T22:45:28.888Z,99487.59
2022-12-20T22:47:31.555Z,99490.94
2022-12-20T22:49:34.149Z,99493.00
2022-12-20T22:51:36.712Z,99487.09
2022-12-20T22:53:40.452Z,99494.06
2022-12-20T22:55:42.982Z,99489.16
2022-12-20T22:57:45.529Z,99498.19
2022-12-20T22:59:48.230Z,99491.44
2022-12-20T23:01:50.987Z,99497.19
2022-12-20T23:03:53.797Z,99502.13
2022-12-20T23:05:59.021Z,99494.91
2022-12-20T23:08:01.640Z,99497.59
2022-12-20T23:10:04.555Z,99500.91
2022-12-20T23:12:27.024Z,99497.66
2022-12-20T23:14:48.424Z,99501.38
2022-12-20T23:16:51.340Z,99505.69
2022-12-20T23:18:55.767Z,99505.69
2022-12-20T23:21:16.984Z,99509.41
2022-12-20T23:23:19.497Z,99513.13
2022-12-20T23:25:22.119Z,99510.47
2022-12-20T23:27:25.179Z,99508.00
2022-12-20T23:29:28.110Z,99505.75
2022-12-20T23:31:31.884Z,99506.75
2022-12-20T23:33:35.103Z,99505.50
2022-12-20T23:35:37.778Z,99509.22
2022-12-20T23:37:40.704Z,99511.50
2022-12-20T23:39:43.299Z,99511.50
2022-12-20T23:41:46.505Z,99511.28
2022-12-20T23:43:49.129Z,99504.09
2022-12-20T23:45:51.804Z,99504.09
2022-12-20T23:47:54.417Z,99507.97
2022-12-20T23:49:57.132Z,99506.09
2022-12-20T23:51:59.672Z,99505.13
2022-12-20T23:54:02.359Z,99508.28
2022-12-20T23:56:05.195Z,99511.16
2022-12-20T23:58:07.830Z,99514.25
